sensor_id;sensor_type;location;lat;lon;timestamp;P1;durP1;ratioP1;P2;durP2;ratioP2
15002;SDS011;7597;53.590;10.020;2023-03-12T07:45:56;12.07;;;8.40;;
15002;SDS011;7597;53.590;10.020;2023-03-12T07:48:23;11.43;;;9.25;;
15002;SDS011;7597;53.590;10.020;2023-03-12T07:50:50;9.50;;;7.70;;
15002;SDS011;7597;53.590;10.020;2023-03-12T07:53:17;11.55;;;7.93;;
15002;SDS011;7597;53.590;10.020;2023-03-12T07:55:44;9.00;;;7.85;;
15002;SDS011;7597;53.590;10.020;2023-03-12T07:58:14;10.73;;;8.57;;
15002;SDS011;7597;53.590;10.020;2023-03-12T08:00:49;8.85;;;7.95;;
15002;SDS011;7597;53.590;10.020;2023-03-12T10:41:50;8.32;;;4.55;;
15002;SDS011;7597;53.590;10.020;2023-03-12T10:44:24;6.27;;;4.27;;
15002;SDS011;7597;53.590;10.020;2023-03-12T10:46:54;5.95;;;4.97;;
15002;SDS011;7597;53.590;10.020;2023-03-12T10:49:35;6.07;;;4.70;;
15002;SDS011;7597;53.590;10.020;2023-03-12T10:52:04;7.72;;;4.30;;
15002;SDS011;7597;53.590;10.020;2023-03-12T10:54:31;6.18;;;4.12;;
15002;SDS011;7597;53.590;10.020;2023-03-12T10:56:57;6.82;;;4.43;;
15002;SDS011;7597;53.590;10.020;2023-03-12T10:59:26;5.68;;;4.30;;
15002;SDS011;7597;53.590;10.020;2023-03-12T11:01:51;7.45;;;4.50;;
15002;SDS011;7597;53.590;10.020;2023-03-12T11:04:20;6.27;;;4.27;;
15002;SDS011;7597;53.590;10.020;2023-03-12T11:09:30;5.37;;;3.90;;
15002;SDS011;7597;53.590;10.020;2023-03-12T11:11:58;5.32;;;3.75;;
15002;SDS011;7597;53.590;10.020;2023-03-12T11:14:26;5.60;;;4.00;;
15002;SDS011;7597;53.590;10.020;2023-03-12T11:16:53;5.93;;;3.90;;
15002;SDS011;7597;53.590;10.020;2023-03-12T11:19:25;5.70;;;4.22;;
15002;SDS011;7597;53.590;10.020;2023-03-12T11:21:55;5.82;;;4.45;;
15002;SDS011;7597;53.590;10.020;2023-03-12T11:24:21;5.30;;;4.37;;
15002;SDS011;7597;53.590;10.020;2023-03-12T11:27:04;8.60;;;4.93;;
15002;SDS011;7597;53.590;10.020;2023-03-12T11:29:47;6.07;;;4.75;;
15002;SDS011;7597;53.590;10.020;2023-03-12T11:32:15;7.35;;;4.75;;
15002;SDS011;7597;53.590;10.020;2023-03-12T11:34:46;7.55;;;4.55;;
15002;SDS011;7597;53.590;10.020;2023-03-12T11:39:59;6.80;;;4.57;;
15002;SDS011;7597;53.590;10.020;2023-03-12T11:42:43;6.23;;;4.07;;
15002;SDS011;7597;53.590;10.020;2023-03-12T11:48:05;7.50;;;4.50;;
15002;SDS011;7597;53.590;10.020;2023-03-12T11:50:34;5.97;;;4.12;;
15002;SDS011;7597;53.590;10.020;2023-03-12T11:53:15;5.60;;;4.12;;
15002;SDS011;7597;53.590;10.020;2023-03-12T11:55:45;6.40;;;4.65;;
15002;SDS011;7597;53.590;10.020;2023-03-12T11:58:40;8.15;;;4.32;;
15002;SDS011;7597;53.590;10.020;2023-03-12T12:01:10;7.00;;;4.33;;
15002;SDS011;7597;53.590;10.020;2023-03-12T12:03:58;5.83;;;3.90;;
15002;SDS011;7597;53.590;10.020;2023-03-12T12:06:49;6.20;;;4.07;;
15002;SDS011;7597;53.590;10.020;2023-03-12T12:09:22;6.22;;;3.83;;
15002;SDS011;7597;53.590;10.020;2023-03-12T12:11:51;5.40;;;3.50;;
